createdAt,value
2023-03-20T00:00:02.681Z,81.89
2023-03-20T00:02:48.769Z,81.16
2023-03-20T00:05:33.600Z,82.42
2023-03-20T00:08:18.061Z,82.74
2023-03-20T00:11:02.011Z,85.13
2023-03-20T00:13:47.660Z,85.20
2023-03-20T00:16:34.044Z,83.01
2023-03-20T00:19:19.670Z,82.25
2023-03-20T00:22:03.865Z,82.40
2023-03-20T00:24:47.870Z,81.89
2023-03-20T00:27:31.841Z,82.69
2023-03-20T00:30:28.478Z,82.87
2023-03-20T00:33:12.468Z,82.81
2023-03-20T00:35:56.635Z,82.34
2023-03-20T00:38:40.722Z,81.87
2023-03-20T00:41:28.348Z,81.23
2023-03-20T00:44:23.546Z,81.46
2023-03-20T00:47:18.126Z,82.19
2023-03-20T00:50:03.171Z,82.54
2023-03-20T00:52:47.998Z,83.69
2023-03-20T00:55:32.186Z,84.23
2023-03-20T00:58:16.149Z,83.44
2023-03-20T01:01:00.231Z,84.03
2023-03-20T01:03:45.882Z,84.36
2023-03-20T01:06:33.150Z,83.70
2023-03-20T01:09:17.246Z,83.76
2023-03-20T01:12:02.002Z,84.27
2023-03-20T01:14:47.526Z,82.99
2023-03-20T01:17:31.520Z,83.81
2023-03-20T01:20:25.774Z,85.16
2023-03-20T01:23:09.917Z,84.43
2023-03-20T01:25:54.061Z,84.97
2023-03-20T01:28:38.192Z,83.84
2023-03-20T01:31:22.087Z,84.03
2023-03-20T01:34:06.416Z,84.04
2023-03-20T01:36:54.285Z,84.24
2023-03-20T01:39:38.926Z,85.51
2023-03-20T01:42:23.252Z,85.30
2023-03-20T01:45:17.857Z,85.78
2023-03-20T01:48:02.056Z,86.00
2023-03-20T01:50:46.235Z,86.01
2023-03-20T01:53:34.390Z,86.50
2023-03-20T01:56:21.508Z,85.49
2023-03-20T01:59:12.027Z,85.61
2023-03-20T02:01:56.396Z,84.95
2023-03-20T02:04:46.371Z,85.26
2023-03-20T02:07:36.326Z,84.52
2023-03-20T02:10:24.422Z,84.92
2023-03-20T02:13:24.253Z,85.07
2023-03-20T02:16:12.567Z,84.71
2023-03-20T02:19:25.096Z,85.23
2023-03-20T02:22:27.302Z,85.47
2023-03-20T02:25:38.819Z,85.29
2023-03-20T02:28:57.708Z,86.74
2023-03-20T02:32:23.269Z,86.33
2023-03-20T02:35:28.118Z,85.91
2023-03-20T02:38:51.928Z,85.06
2023-03-20T02:41:43.915Z,85.36
2023-03-20T02:44:35.027Z,85.70
2023-03-20T02:47:26.920Z,86.15
2023-03-20T02:50:17.543Z,87.20
2023-03-20T02:53:12.963Z,87.11
2023-03-20T02:56:06.279Z,89.28
2023-03-20T02:58:59.631Z,89.20
2023-03-20T03:01:48.955Z,88.58
2023-03-20T03:04:37.501Z,88.29
2023-03-20T03:07:23.744Z,88.59
2023-03-20T03:10:12.884Z,88.25
2023-03-20T03:12:59.870Z,88.38
2023-03-20T03:15:49.393Z,90.75
2023-03-20T03:18:36.245Z,93.26
2023-03-20T03:21:22.678Z,93.22
2023-03-20T03:24:08.131Z,91.20
2023-03-20T03:26:53.792Z,89.45
2023-03-20T03:29:40.795Z,89.81
2023-03-20T03:32:30.781Z,89.09
2023-03-20T03:35:18.697Z,87.76
2023-03-20T03:38:06.857Z,88.11
2023-03-20T03:40:57.973Z,88.01
2023-03-20T03:43:48.447Z,88.33
2023-03-20T03:46:43.459Z,89.35
2023-03-20T03:49:34.423Z,87.18
2023-03-20T03:52:22.702Z,87.18
2023-03-20T03:55:11.906Z,87.42
2023-03-20T03:58:20.147Z,88.22
2023-03-20T04:01:06.669Z,88.84
2023-03-20T04:03:54.101Z,88.35
2023-03-20T04:06:39.994Z,88.81
2023-03-20T04:09:24.261Z,88.67
2023-03-20T04:12:30.103Z,88.22
2023-03-20T04:15:16.732Z,88.36
2023-03-20T04:18:01.190Z,88.80
2023-03-20T04:20:45.408Z,88.73
2023-03-20T04:23:30.854Z,88.51
2023-03-20T04:26:15.094Z,88.77
2023-03-20T04:28:58.916Z,88.90
2023-03-20T04:32:06.561Z,88.91
2023-03-20T04:35:12.039Z,88.68
2023-03-20T04:38:09.196Z,88.49
2023-03-20T04:40:54.915Z,88.50
2023-03-20T04:43:39.496Z,88.61
2023-03-20T04:46:24.145Z,88.67
2023-03-20T04:49:08.600Z,88.67
2023-03-20T04:51:53.018Z,88.35
2023-03-20T04:54:48.083Z,87.95
2023-03-20T04:57:33.700Z,89.12
2023-03-20T05:00:19.111Z,88.94
2023-03-20T05:03:03.234Z,89.38
2023-03-20T05:05:47.284Z,88.96
2023-03-20T05:08:31.594Z,89.45
2023-03-20T05:11:17.636Z,88.89
2023-03-20T05:14:23.557Z,90.69
2023-03-20T05:17:38.813Z,90.88
2023-03-20T05:20:32.568Z,89.80
2023-03-20T05:23:23.554Z,89.21
2023-03-20T05:26:30.464Z,88.86
2023-03-20T05:29:24.942Z,87.22
2023-03-20T05:32:32.714Z,87.19
2023-03-20T05:35:35.619Z,85.96
2023-03-20T05:38:35.412Z,88.70
2023-03-20T05:41:37.639Z,87.64
2023-03-20T05:44:43.161Z,86.26
2023-03-20T05:47:32.856Z,86.52
2023-03-20T05:50:55.525Z,85.49
2023-03-20T05:53:42.567Z,85.91
2023-03-20T05:56:52.740Z,85.75
2023-03-20T06:00:01.517Z,85.29
2023-03-20T06:02:57.849Z,85.29
2023-03-20T06:06:01.169Z,85.59
2023-03-20T06:08:45.503Z,86.05
2023-03-20T06:11:30.143Z,85.27
2023-03-20T06:14:14.074Z,84.33
2023-03-20T06:17:02.522Z,87.40
2023-03-20T06:19:47.870Z,83.71
2023-03-20T06:22:32.545Z,83.37
2023-03-20T06:25:16.696Z,84.72
2023-03-20T06:28:02.102Z,86.10
2023-03-20T06:30:47.605Z,85.21
2023-03-20T06:33:38.281Z,85.04
2023-03-20T06:36:22.195Z,82.58
2023-03-20T06:39:11.093Z,85.57
2023-03-20T06:41:56.027Z,84.91
2023-03-20T06:44:41.957Z,82.82
2023-03-20T06:47:58.223Z,81.54
2023-03-20T06:50:43.957Z,82.23
2023-03-20T06:53:32.270Z,85.64
2023-03-20T06:56:32.519Z,87.30
2023-03-20T06:59:17.167Z,85.89
2023-03-20T07:02:01.736Z,84.99
2023-03-20T07:04:45.946Z,82.04
2023-03-20T07:07:31.955Z,81.69
2023-03-20T07:10:16.044Z,80.46
2023-03-20T07:13:05.533Z,78.15
2023-03-20T07:16:03.448Z,77.82
2023-03-20T07:18:53.584Z,81.08
2023-03-20T07:21:38.084Z,78.71
2023-03-20T07:24:24.148Z,78.35
2023-03-20T07:27:08.263Z,78.76
2023-03-20T07:29:52.610Z,78.87
2023-03-20T07:32:37.915Z,78.89
2023-03-20T07:35:22.338Z,76.89
2023-03-20T07:38:06.576Z,77.26
2023-03-20T07:40:56.696Z,77.88
2023-03-20T07:43:40.758Z,75.54
2023-03-20T07:46:48.183Z,75.88
2023-03-20T07:49:33.008Z,75.94
2023-03-20T07:52:18.324Z,75.10
2023-03-20T07:55:02.276Z,76.05
2023-03-20T07:57:49.755Z,73.62
2023-03-20T08:00:34.912Z,74.90
2023-03-20T08:03:19.175Z,76.15
2023-03-20T08:06:04.324Z,74.61
2023-03-20T08:08:52.035Z,73.11
2023-03-20T08:11:36.098Z,74.75
2023-03-20T08:14:21.563Z,74.27
2023-03-20T08:17:14.511Z,72.95
2023-03-20T08:20:00.000Z,71.51
2023-03-20T08:22:46.010Z,69.80
2023-03-20T08:25:33.628Z,72.44
2023-03-20T08:28:18.317Z,72.51
2023-03-20T08:31:04.210Z,74.58
2023-03-20T08:33:48.868Z,69.86
2023-03-20T08:36:32.892Z,66.67
2023-03-20T08:39:17.097Z,67.92
2023-03-20T08:42:01.409Z,68.33
2023-03-20T08:44:46.406Z,68.54
2023-03-20T08:47:31.797Z,69.51
2023-03-20T08:50:16.411Z,67.94
2023-03-20T08:53:01.358Z,67.76
2023-03-20T08:55:49.397Z,72.31
2023-03-20T08:58:33.521Z,70.24
2023-03-20T09:01:17.605Z,69.66
2023-03-20T09:04:03.632Z,67.50
2023-03-20T09:06:47.671Z,66.53
2023-03-20T09:09:32.601Z,65.62
2023-03-20T09:12:17.001Z,63.46
2023-03-20T09:15:01.474Z,62.37
2023-03-20T09:17:47.274Z,60.59
2023-03-20T09:20:33.042Z,62.53
2023-03-20T09:23:17.658Z,63.90
2023-03-20T09:26:01.621Z,63.87
2023-03-20T09:28:45.672Z,60.87
2023-03-20T09:31:29.898Z,62.39
2023-03-20T09:34:14.077Z,62.61
2023-03-20T09:36:59.474Z,62.77
2023-03-20T09:39:43.511Z,66.34
2023-03-20T09:42:39.624Z,67.22
2023-03-20T09:45:36.121Z,67.90
2023-03-20T09:48:27.399Z,66.32
2023-03-20T09:51:21.240Z,66.77
2023-03-20T09:54:12.316Z,67.69
2023-03-20T09:56:58.191Z,67.93
2023-03-20T09:59:42.544Z,68.62
2023-03-20T10:02:38.232Z,71.23
2023-03-20T10:05:26.316Z,72.93
2023-03-20T10:08:17.067Z,70.92
2023-03-20T10:11:16.352Z,71.15
2023-03-20T10:14:12.409Z,69.13
2023-03-20T10:17:10.985Z,67.67
2023-03-20T10:19:59.980Z,67.72
2023-03-20T10:22:48.838Z,69.40
2023-03-20T10:25:35.253Z,68.33
2023-03-20T10:28:26.254Z,68.51
2023-03-20T10:31:26.781Z,68.15
2023-03-20T10:34:25.426Z,66.46
2023-03-20T10:37:25.530Z,67.35
2023-03-20T10:40:25.005Z,67.71
2023-03-20T10:43:17.301Z,66.38
2023-03-20T10:46:08.251Z,64.23
2023-03-20T10:48:58.546Z,64.27
2023-03-20T10:51:48.144Z,67.09
2023-03-20T10:54:35.166Z,67.72
2023-03-20T10:57:23.455Z,64.57
2023-03-20T11:00:13.341Z,64.89
2023-03-20T11:02:58.582Z,63.80
2023-03-20T11:05:42.586Z,65.14
2023-03-20T11:08:32.010Z,65.53
2023-03-20T11:11:22.587Z,63.85
2023-03-20T11:14:18.781Z,63.41
2023-03-20T11:17:04.366Z,61.79
2023-03-20T11:19:52.887Z,61.60
2023-03-20T11:22:39.157Z,61.40
2023-03-20T11:25:31.290Z,62.06
2023-03-20T11:28:26.971Z,60.24
2023-03-20T11:31:19.041Z,59.72
2023-03-20T11:34:14.092Z,58.55
2023-03-20T11:37:16.675Z,58.57
2023-03-20T11:40:06.804Z,59.93
2023-03-20T11:42:55.604Z,58.85
2023-03-20T11:45:41.400Z,58.50
2023-03-20T11:48:27.254Z,58.59
2023-03-20T11:51:15.607Z,58.40
2023-03-20T11:54:04.334Z,56.75
2023-03-20T11:56:57.001Z,57.29
2023-03-20T11:59:41.563Z,57.26
2023-03-20T12:02:27.224Z,57.25
2023-03-20T12:05:30.457Z,59.31
2023-03-20T12:08:19.840Z,58.63
2023-03-20T12:11:17.926Z,59.16
2023-03-20T12:14:04.755Z,60.18
2023-03-20T12:16:51.234Z,59.97
2023-03-20T12:19:36.690Z,61.31
2023-03-20T12:22:25.519Z,62.04
2023-03-20T12:25:21.576Z,60.70
2023-03-20T12:28:13.798Z,61.98
2023-03-20T12:31:11.269Z,62.66
2023-03-20T12:34:02.433Z,64.99
2023-03-20T12:36:48.363Z,64.25
2023-03-20T12:39:36.621Z,66.08
2023-03-20T12:42:32.750Z,63.75
2023-03-20T12:45:22.186Z,64.46
2023-03-20T12:48:22.662Z,64.14
2023-03-20T12:51:17.796Z,64.26
2023-03-20T12:54:16.626Z,63.79
2023-03-20T12:57:08.140Z,63.81
2023-03-20T13:00:22.523Z,64.42
2023-03-20T13:03:29.761Z,65.71
2023-03-20T13:06:19.714Z,64.37
2023-03-20T13:09:31.332Z,62.30
2023-03-20T13:12:28.365Z,63.18
2023-03-20T13:15:24.678Z,62.74
2023-03-20T13:18:17.416Z,62.57
2023-03-20T13:21:09.065Z,64.00
2023-03-20T13:24:02.021Z,62.32
2023-03-20T13:26:52.986Z,64.52
2023-03-20T13:29:48.566Z,67.39
2023-03-20T13:32:45.246Z,70.10
2023-03-20T13:35:39.692Z,70.86
2023-03-20T13:38:26.216Z,69.94
2023-03-20T13:41:11.884Z,67.01
2023-03-20T13:44:01.387Z,65.77
2023-03-20T13:46:50.683Z,66.30
2023-03-20T13:49:38.896Z,64.67
2023-03-20T13:52:26.907Z,64.88
2023-03-20T13:55:23.741Z,65.03
2023-03-20T13:58:23.148Z,66.24
2023-03-20T14:01:17.965Z,66.94
2023-03-20T14:04:04.181Z,68.19
2023-03-20T14:06:54.760Z,69.57
2023-03-20T14:09:39.548Z,69.86
2023-03-20T14:12:26.823Z,65.93
2023-03-20T14:15:13.886Z,65.81
2023-03-20T14:17:57.990Z,66.46
2023-03-20T14:20:43.326Z,68.19
2023-03-20T14:23:35.844Z,67.15
2023-03-20T14:26:24.269Z,71.20
2023-03-20T14:29:32.102Z,68.73
2023-03-20T14:32:33.821Z,67.66
2023-03-20T14:35:27.686Z,67.20
2023-03-20T14:38:22.262Z,68.95
2023-03-20T14:41:17.034Z,68.06
2023-03-20T14:44:17.650Z,69.56
2023-03-20T14:47:11.437Z,68.62
2023-03-20T14:49:59.900Z,67.99
2023-03-20T14:52:54.235Z,70.03
2023-03-20T14:55:59.937Z,70.43
2023-03-20T14:58:54.788Z,72.61
2023-03-20T15:01:54.742Z,75.81
2023-03-20T15:04:40.800Z,76.40
2023-03-20T15:07:27.933Z,75.26
2023-03-20T15:10:12.543Z,74.15
2023-03-20T15:12:58.241Z,72.67
2023-03-20T15:15:54.591Z,74.03
2023-03-20T15:18:41.220Z,75.67
2023-03-20T15:21:31.832Z,75.32
2023-03-20T15:24:21.650Z,73.66
2023-03-20T15:27:06.471Z,74.58
2023-03-20T15:29:53.627Z,74.80
2023-03-20T15:32:39.367Z,77.30
2023-03-20T15:35:27.223Z,76.67
2023-03-20T15:38:16.282Z,77.10
2023-03-20T15:41:00.445Z,77.63
2023-03-20T15:43:44.532Z,76.96
2023-03-20T15:46:28.689Z,76.52
2023-03-20T15:49:20.137Z,75.86
2023-03-20T15:52:08.388Z,74.38
2023-03-20T15:54:52.782Z,75.25
2023-03-20T15:57:39.809Z,74.59
2023-03-20T16:00:30.149Z,75.35
2023-03-20T16:03:19.382Z,77.36
2023-03-20T16:06:09.570Z,77.81
2023-03-20T16:09:02.287Z,79.51
2023-03-20T16:11:48.739Z,81.43
2023-03-20T16:14:35.217Z,81.04
2023-03-20T16:17:20.582Z,79.59
2023-03-20T16:20:05.407Z,80.32
2023-03-20T16:22:52.531Z,77.93
2023-03-20T16:25:38.419Z,78.40
2023-03-20T16:28:22.551Z,78.69
2023-03-20T16:31:11.063Z,78.22
2023-03-20T16:33:55.389Z,78.57
2023-03-20T16:36:40.094Z,78.35
2023-03-20T16:39:27.621Z,78.38
2023-03-20T16:42:17.261Z,81.27
2023-03-20T16:45:01.208Z,79.95
2023-03-20T16:47:49.250Z,79.93
2023-03-20T16:50:38.194Z,79.98
2023-03-20T16:53:23.668Z,79.54
2023-03-20T16:56:13.337Z,79.65
2023-03-20T16:58:58.014Z,80.42
2023-03-20T17:01:44.888Z,81.33
2023-03-20T17:04:34.874Z,80.41
2023-03-20T17:07:25.718Z,82.31
2023-03-20T17:10:21.766Z,81.97
2023-03-20T17:13:07.773Z,82.58
2023-03-20T17:15:51.798Z,81.87
2023-03-20T17:18:37.542Z,81.43
2023-03-20T17:21:21.625Z,80.84
2023-03-20T17:24:06.377Z,81.21
2023-03-20T17:26:54.896Z,80.84
2023-03-20T17:29:40.691Z,79.86
2023-03-20T17:32:24.868Z,80.97
2023-03-20T17:35:09.826Z,80.79
2023-03-20T17:37:53.960Z,79.98
2023-03-20T17:40:38.532Z,80.72
2023-03-20T17:43:22.901Z,81.36
2023-03-20T17:46:08.926Z,80.89
2023-03-20T17:48:57.489Z,80.24
2023-03-20T17:51:41.706Z,80.84
2023-03-20T17:54:25.785Z,81.13
2023-03-20T17:57:20.248Z,82.44
2023-03-20T18:00:06.782Z,81.83
2023-03-20T18:02:53.607Z,81.37
2023-03-20T18:05:39.636Z,81.31
2023-03-20T18:08:24.010Z,81.11
2023-03-20T18:11:10.153Z,81.37
2023-03-20T18:13:54.194Z,81.91
2023-03-20T18:16:38.231Z,82.15
2023-03-20T18:19:28.505Z,82.33
2023-03-20T18:22:12.750Z,81.61
2023-03-20T18:24:56.763Z,81.64
2023-03-20T18:27:40.926Z,80.54
2023-03-20T18:30:28.046Z,80.14
2023-03-20T18:33:12.030Z,81.69
2023-03-20T18:35:57.397Z,81.78
2023-03-20T18:38:41.349Z,81.26
2023-03-20T18:41:25.832Z,81.02
2023-03-20T18:44:10.090Z,81.94
2023-03-20T18:46:54.472Z,82.15
2023-03-20T18:49:38.915Z,81.54
2023-03-20T18:52:24.641Z,81.13
2023-03-20T18:55:09.564Z,81.61
2023-03-20T18:57:54.158Z,81.30
2023-03-20T19:00:41.127Z,80.99
2023-03-20T19:03:25.982Z,81.73
2023-03-20T19:06:15.089Z,81.55
2023-03-20T19:09:04.169Z,81.35
2023-03-20T19:11:48.284Z,81.27
2023-03-20T19:14:32.554Z,81.12
2023-03-20T19:17:16.924Z,80.51
2023-03-20T19:20:00.974Z,81.04
2023-03-20T19:22:45.455Z,80.43
2023-03-20T19:25:32.249Z,79.65
2023-03-20T19:28:28.810Z,81.25
2023-03-20T19:31:19.230Z,81.57
2023-03-20T19:34:03.687Z,81.91
2023-03-20T19:36:49.306Z,82.36
2023-03-20T19:39:33.413Z,82.50
2023-03-20T19:42:49.654Z,82.62
2023-03-20T19:45:23.209Z,83.19
2023-03-20T19:48:15.540Z,82.52
2023-03-20T19:51:01.508Z,82.73
2023-03-20T19:53:46.230Z,82.85
2023-03-20T19:56:30.472Z,82.55
2023-03-20T19:59:17.028Z,82.31
2023-03-20T20:02:01.706Z,82.60
2023-03-20T20:04:45.949Z,82.95
2023-03-20T20:08:09.197Z,82.80
2023-03-20T20:10:36.277Z,83.33
2023-03-20T20:13:22.152Z,83.59
2023-03-20T20:16:08.016Z,84.29
2023-03-20T20:18:52.168Z,83.57
2023-03-20T20:22:19.511Z,84.26
2023-03-20T20:24:41.714Z,84.04
2023-03-20T20:27:26.496Z,83.29
2023-03-20T20:30:13.868Z,83.41
2023-03-20T20:33:03.467Z,83.23
2023-03-20T20:36:21.236Z,82.16
2023-03-20T20:38:54.460Z,82.60
2023-03-20T20:41:38.695Z,82.99
2023-03-20T20:44:22.837Z,82.77
2023-03-20T20:47:07.217Z,81.47
2023-03-20T20:49:53.010Z,82.69
2023-03-20T20:52:39.162Z,83.30
2023-03-20T20:55:25.999Z,82.73
2023-03-20T20:58:10.190Z,83.38
2023-03-20T21:00:55.576Z,83.64
2023-03-20T21:03:40.144Z,83.10
2023-03-20T21:06:50.593Z,82.82
2023-03-20T21:09:29.642Z,82.32
2023-03-20T21:12:30.576Z,82.43
2023-03-20T21:15:17.927Z,82.51
2023-03-20T21:18:02.079Z,83.73
2023-03-20T21:20:46.296Z,82.86
2023-03-20T21:23:32.097Z,83.33
2023-03-20T21:26:16.514Z,83.40
2023-03-20T21:29:00.490Z,83.65
2023-03-20T21:31:44.577Z,82.89
2023-03-20T21:34:29.167Z,83.42
2023-03-20T21:38:17.900Z,83.69
2023-03-20T21:40:22.059Z,82.88
2023-03-20T21:43:06.106Z,83.01
2023-03-20T21:52:54.552Z,83.08
2023-03-20T21:55:52.328Z,83.39
2023-03-20T21:58:48.859Z,83.47
2023-03-20T22:01:49.488Z,84.00
2023-03-20T22:05:16.284Z,83.84
2023-03-20T22:14:30.933Z,83.74
2023-03-20T22:17:40.566Z,84.41
2023-03-20T22:20:29.808Z,83.92
2023-03-20T22:42:06.821Z,83.80
2023-03-20T22:44:59.059Z,84.45
2023-03-20T22:47:30.693Z,84.44
2023-03-20T22:50:14.647Z,84.16
2023-03-20T22:52:58.608Z,84.65
2023-03-20T22:55:45.162Z,83.82
2023-03-20T22:58:29.202Z,85.08
2023-03-20T23:01:14.581Z,85.10
2023-03-20T23:03:58.678Z,82.45
2023-03-20T23:06:42.734Z,81.87
2023-03-20T23:09:26.781Z,82.75
2023-03-20T23:12:11.123Z,83.61
2023-03-20T23:14:56.034Z,84.47
2023-03-20T23:17:41.509Z,83.56
2023-03-20T23:20:25.683Z,84.49
2023-03-20T23:23:10.620Z,84.51
2023-03-20T23:26:03.929Z,83.99
2023-03-20T23:28:49.139Z,83.89
2023-03-20T23:31:33.451Z,83.50
2023-03-20T23:34:18.891Z,83.18
2023-03-20T23:37:02.768Z,83.10
2023-03-20T23:39:46.672Z,82.78
2023-03-20T23:42:31.127Z,83.32
2023-03-20T23:45:20.371Z,83.56
2023-03-20T23:48:05.525Z,83.35
2023-03-20T23:50:53.564Z,83.47
2023-03-20T23:53:37.764Z,83.91
2023-03-20T23:56:22.019Z,84.09
2023-03-20T23:59:18.735Z,84.86
